createdAt,value
2022-12-01T00:00:38.656Z,45.70
2022-12-01T00:01:38.671Z,46.10
2022-12-01T00:02:38.761Z,46.30
2022-12-01T00:03:38.613Z,45.40
2022-12-01T00:04:38.597Z,46.90
2022-12-01T00:05:38.562Z,45.70
2022-12-01T00:06:38.567Z,45.80
2022-12-01T00:07:38.567Z,46.60
2022-12-01T00:08:38.574Z,44.90
2022-12-01T00:09:38.512Z,46.50
2022-12-01T00:10:38.510Z,47.70
2022-12-01T00:11:38.489Z,46.00
2022-12-01T00:12:38.478Z,46.60
2022-12-01T00:13:38.490Z,45.60
2022-12-01T00:14:38.483Z,45.90
2022-12-01T00:15:38.458Z,46.00
2022-12-01T00:16:38.547Z,45.70
2022-12-01T00:17:38.417Z,47.60
2022-12-01T00:18:38.421Z,46.20
2022-12-01T00:19:38.418Z,46.70
2022-12-01T00:20:38.383Z,47.80
2022-12-01T00:21:38.384Z,45.80
2022-12-01T00:22:38.362Z,46.10
2022-12-01T00:23:38.342Z,46.20
2022-12-01T00:24:38.362Z,46.50
2022-12-01T00:25:38.318Z,46.90
2022-12-01T00:26:38.304Z,47.20
2022-12-01T00:27:38.284Z,46.30
2022-12-01T00:28:38.275Z,45.10
2022-12-01T00:29:38.294Z,44.80
2022-12-01T00:30:38.262Z,45.10
2022-12-01T00:31:38.373Z,47.00
2022-12-01T00:32:38.217Z,45.30
2022-12-01T00:33:38.211Z,46.30
2022-12-01T00:34:38.223Z,45.30
2022-12-01T00:35:38.173Z,46.40
2022-12-01T00:36:38.179Z,47.50
2022-12-01T00:37:38.150Z,46.00
2022-12-01T00:38:38.144Z,45.70
2022-12-01T00:39:38.140Z,45.50
2022-12-01T00:40:38.125Z,44.80
2022-12-01T00:41:38.159Z,44.40
2022-12-01T00:42:38.097Z,45.60
2022-12-01T00:43:38.074Z,45.20
2022-12-01T00:44:38.087Z,44.90
2022-12-01T00:45:38.122Z,44.90
2022-12-01T00:46:38.053Z,46.00
2022-12-01T00:47:38.014Z,43.90
2022-12-01T00:48:38.005Z,44.20
2022-12-01T00:49:38.018Z,43.80
2022-12-01T00:50:38.072Z,43.90
2022-12-01T00:51:37.960Z,43.70
2022-12-01T00:52:37.991Z,44.40
2022-12-01T00:53:37.975Z,44.60
2022-12-01T00:54:37.972Z,45.30
2022-12-01T00:55:37.917Z,44.50
2022-12-01T00:56:37.909Z,45.60
2022-12-01T00:57:37.893Z,45.70
2022-12-01T00:58:37.892Z,45.50
2022-12-01T00:59:37.896Z,45.60
2022-12-01T01:00:37.862Z,45.00
2022-12-01T01:01:37.888Z,46.70
2022-12-01T01:02:37.892Z,45.50
2022-12-01T01:03:37.859Z,44.30
2022-12-01T01:04:37.808Z,43.80
2022-12-01T01:05:37.799Z,45.70
2022-12-01T01:06:37.772Z,43.80
2022-12-01T01:07:37.810Z,45.20
2022-12-01T01:08:37.762Z,44.80
2022-12-01T01:09:37.874Z,45.10
2022-12-01T01:10:37.795Z,45.90
2022-12-01T01:11:37.747Z,46.00
2022-12-01T01:12:37.705Z,45.40
2022-12-01T01:13:37.686Z,45.80
2022-12-01T01:14:37.672Z,44.30
2022-12-01T01:15:37.685Z,44.60
2022-12-01T01:16:37.670Z,43.50
2022-12-01T01:17:37.625Z,44.50
2022-12-01T01:18:37.648Z,44.60
2022-12-01T01:19:37.594Z,44.60
2022-12-01T01:20:37.598Z,43.70
2022-12-01T01:21:37.573Z,43.80
2022-12-01T01:22:37.607Z,43.20
2022-12-01T01:23:37.545Z,45.20
2022-12-01T01:24:37.543Z,45.00
2022-12-01T01:25:37.526Z,44.80
2022-12-01T01:26:37.525Z,43.70
2022-12-01T01:27:37.527Z,44.00
2022-12-01T01:28:37.518Z,44.00
2022-12-01T01:29:37.459Z,43.00
2022-12-01T01:30:37.517Z,43.00
2022-12-01T01:31:37.442Z,43.40
2022-12-01T01:32:37.467Z,42.30
2022-12-01T01:33:37.414Z,43.40
2022-12-01T01:34:37.435Z,42.80
2022-12-01T01:35:37.386Z,41.40
2022-12-01T01:36:37.380Z,42.40
2022-12-01T01:37:37.378Z,42.40
2022-12-01T01:38:37.359Z,42.10
2022-12-01T01:39:37.361Z,42.60
2022-12-01T01:40:37.329Z,42.10
2022-12-01T01:41:37.317Z,42.30
2022-12-01T01:42:37.316Z,41.50
2022-12-01T01:43:37.287Z,43.20
2022-12-01T01:44:37.301Z,42.00
2022-12-01T01:45:37.327Z,41.70
2022-12-01T01:46:37.253Z,42.60
2022-12-01T01:47:37.265Z,41.40
2022-12-01T01:48:37.231Z,42.50
2022-12-01T01:49:37.228Z,43.30
2022-12-01T01:50:37.226Z,42.10
2022-12-01T01:51:37.174Z,41.20
2022-12-01T01:52:37.174Z,41.40
2022-12-01T01:53:37.153Z,40.80
2022-12-01T01:54:37.183Z,41.00
2022-12-01T01:55:37.138Z,42.10
2022-12-01T01:56:37.120Z,40.10
2022-12-01T01:57:37.124Z,43.20
2022-12-01T01:58:37.088Z,42.20
2022-12-01T01:59:37.094Z,40.60
2022-12-01T02:00:37.072Z,39.30
2022-12-01T02:01:37.183Z,40.30
2022-12-01T02:02:37.127Z,38.40
2022-12-01T02:03:37.016Z,38.90
2022-12-01T02:04:37.055Z,40.70
2022-12-01T02:05:37.020Z,37.80
2022-12-01T02:06:36.990Z,39.10
2022-12-01T02:07:37.013Z,38.90
2022-12-01T02:08:36.994Z,39.70
2022-12-01T02:09:36.940Z,39.80
2022-12-01T02:10:36.938Z,39.30
2022-12-01T02:11:36.915Z,40.00
2022-12-01T02:12:36.909Z,39.60
2022-12-01T02:13:36.916Z,39.30
2022-12-01T02:14:36.908Z,38.60
2022-12-01T02:15:36.960Z,38.50
2022-12-01T02:16:36.920Z,38.60
2022-12-01T02:17:41.522Z,38.00
2022-12-01T02:18:36.836Z,38.20
2022-12-01T02:19:36.832Z,36.40
2022-12-01T02:20:36.816Z,37.60
2022-12-01T02:21:36.780Z,38.20
2022-12-01T02:22:36.817Z,36.70
2022-12-01T02:23:36.763Z,36.50
2022-12-01T02:24:36.750Z,38.10
2022-12-01T02:25:36.732Z,37.80
2022-12-01T02:26:36.717Z,37.00
2022-12-01T02:27:36.728Z,37.90
2022-12-01T02:28:36.725Z,37.40
2022-12-01T02:29:36.688Z,37.90
2022-12-01T02:30:36.709Z,36.90
2022-12-01T02:31:36.647Z,37.10
2022-12-01T02:32:36.677Z,38.60
2022-12-01T02:33:36.623Z,37.30
2022-12-01T02:34:36.619Z,37.10
2022-12-01T02:35:36.605Z,37.60
2022-12-01T02:36:36.591Z,36.70
2022-12-01T02:37:36.602Z,36.20
2022-12-01T02:38:36.563Z,38.10
2022-12-01T02:39:36.543Z,35.50
2022-12-01T02:40:36.547Z,35.70
2022-12-01T02:41:36.543Z,36.10
2022-12-01T02:42:36.518Z,36.30
2022-12-01T02:43:36.494Z,36.90
2022-12-01T02:44:36.485Z,35.30
2022-12-01T02:45:36.495Z,36.50
2022-12-01T02:46:36.537Z,36.10
2022-12-01T02:47:36.478Z,36.80
2022-12-01T02:48:36.434Z,35.80
2022-12-01T02:49:36.424Z,36.10
2022-12-01T02:50:36.418Z,37.00
2022-12-01T02:51:36.414Z,35.60
2022-12-01T02:52:36.383Z,35.90
2022-12-01T02:53:36.370Z,36.10
2022-12-01T02:54:36.380Z,36.50
2022-12-01T02:55:36.345Z,36.20
2022-12-01T02:56:36.332Z,36.00
2022-12-01T02:57:36.320Z,36.10
2022-12-01T02:58:36.324Z,35.70
2022-12-01T02:59:36.279Z,35.50
2022-12-01T03:00:36.278Z,36.60
2022-12-01T03:01:36.360Z,37.20
2022-12-01T03:02:36.337Z,35.30
2022-12-01T03:03:36.231Z,36.00
2022-12-01T03:04:36.250Z,35.60
2022-12-01T03:05:36.207Z,35.30
2022-12-01T03:06:36.229Z,35.90
2022-12-01T03:07:36.267Z,36.00
2022-12-01T03:08:36.177Z,36.40
2022-12-01T03:09:36.157Z,35.70
2022-12-01T03:10:36.151Z,36.90
2022-12-01T03:11:36.127Z,37.40
2022-12-01T03:12:36.150Z,37.20
2022-12-01T03:13:36.108Z,36.20
2022-12-01T03:14:36.106Z,36.90
2022-12-01T03:15:36.185Z,38.50
2022-12-01T03:16:36.103Z,37.80
2022-12-01T03:17:36.076Z,39.30
2022-12-01T03:18:36.040Z,39.40
2022-12-01T03:19:36.048Z,38.20
2022-12-01T03:20:36.049Z,38.90
2022-12-01T03:21:35.993Z,39.10
2022-12-01T03:22:35.991Z,38.90
2022-12-01T03:23:35.980Z,38.90
2022-12-01T03:24:35.970Z,39.20
2022-12-01T03:25:35.968Z,38.80
2022-12-01T03:26:35.957Z,40.60
2022-12-01T03:27:35.932Z,39.80
2022-12-01T03:28:35.923Z,37.60
2022-12-01T03:29:35.918Z,38.70
2022-12-01T03:30:35.891Z,38.80
2022-12-01T03:31:35.954Z,38.50
2022-12-01T03:32:35.861Z,37.40
2022-12-01T03:33:35.866Z,38.70
2022-12-01T03:34:35.825Z,37.90
2022-12-01T03:35:35.826Z,37.60
2022-12-01T03:36:35.820Z,38.20
2022-12-01T03:37:35.823Z,39.20
2022-12-01T03:38:35.778Z,38.70
2022-12-01T03:39:35.802Z,37.70
2022-12-01T03:40:35.747Z,38.80
2022-12-01T03:41:35.779Z,37.50
2022-12-01T03:42:35.794Z,37.70
2022-12-01T03:43:35.714Z,37.90
2022-12-01T03:44:35.693Z,38.30
2022-12-01T03:45:35.684Z,38.80
2022-12-01T03:46:35.769Z,39.00
2022-12-01T03:47:35.721Z,39.80
2022-12-01T03:48:35.642Z,39.10
2022-12-01T03:49:35.643Z,38.80
2022-12-01T03:50:35.617Z,39.80
2022-12-01T03:51:35.640Z,39.90
2022-12-01T03:52:35.642Z,38.40
2022-12-01T03:53:35.614Z,39.30
2022-12-01T03:54:35.561Z,39.70
2022-12-01T03:55:35.558Z,38.90
2022-12-01T03:56:35.542Z,39.40
2022-12-01T03:57:35.558Z,38.80
2022-12-01T03:58:35.523Z,40.40
2022-12-01T03:59:35.505Z,40.80
2022-12-01T04:00:35.491Z,39.60
2022-12-01T04:01:35.585Z,39.80
2022-12-01T04:02:35.549Z,38.60
2022-12-01T04:03:35.452Z,38.70
2022-12-01T04:04:35.453Z,39.70
2022-12-01T04:05:35.455Z,39.60
2022-12-01T04:06:35.418Z,38.70
2022-12-01T04:07:35.440Z,38.50
2022-12-01T04:08:35.380Z,39.20
2022-12-01T04:09:35.413Z,39.30
2022-12-01T04:10:35.375Z,38.90
2022-12-01T04:11:35.351Z,37.60
2022-12-01T04:12:35.324Z,39.30
2022-12-01T04:13:35.332Z,39.10
2022-12-01T04:14:35.346Z,38.90
2022-12-01T04:15:35.323Z,38.10
2022-12-01T04:16:35.385Z,38.50
2022-12-01T04:17:35.292Z,39.30
2022-12-01T04:18:35.270Z,37.60
2022-12-01T04:19:35.263Z,38.80
2022-12-01T04:20:35.228Z,39.20
2022-12-01T04:21:35.257Z,38.90
2022-12-01T04:22:35.193Z,38.30
2022-12-01T04:23:35.205Z,37.30
2022-12-01T04:24:35.187Z,38.00
2022-12-01T04:25:35.165Z,37.10
2022-12-01T04:26:35.177Z,37.90
2022-12-01T04:27:35.141Z,38.70
2022-12-01T04:28:35.121Z,37.80
2022-12-01T04:29:35.138Z,37.60
2022-12-01T04:30:35.120Z,38.00
2022-12-01T04:31:35.233Z,38.50
2022-12-01T04:32:35.061Z,38.40
2022-12-01T04:33:35.066Z,37.20
2022-12-01T04:34:35.058Z,37.00
2022-12-01T04:35:35.035Z,38.50
2022-12-01T04:36:35.037Z,38.70
2022-12-01T04:37:35.006Z,37.80
2022-12-01T04:38:34.993Z,38.20
2022-12-01T04:39:35.001Z,39.40
2022-12-01T04:40:34.957Z,39.00
2022-12-01T04:41:34.971Z,39.50
2022-12-01T04:42:34.935Z,39.70
2022-12-01T04:43:34.954Z,41.00
2022-12-01T04:44:35.381Z,39.60
2022-12-01T04:45:34.953Z,40.70
2022-12-01T04:46:34.939Z,39.50
2022-12-01T04:47:34.879Z,40.40
2022-12-01T04:48:34.854Z,42.00
2022-12-01T04:49:34.872Z,41.90
2022-12-01T04:50:34.838Z,40.60
2022-12-01T04:51:34.859Z,40.80
2022-12-01T04:52:35.523Z,41.80
2022-12-01T04:53:34.802Z,40.80
2022-12-01T04:54:34.787Z,41.20
2022-12-01T04:55:34.781Z,40.90
2022-12-01T04:56:34.771Z,41.70
2022-12-01T04:57:34.743Z,40.40
2022-12-01T04:58:34.775Z,40.80
2022-12-01T04:59:34.720Z,41.20
2022-12-01T05:00:34.743Z,40.50
2022-12-01T05:01:34.751Z,41.80
2022-12-01T05:02:34.781Z,40.60
2022-12-01T05:03:34.672Z,41.40
2022-12-01T05:04:34.645Z,42.50
2022-12-01T05:05:34.637Z,42.50
2022-12-01T05:06:34.649Z,41.60
2022-12-01T05:07:34.650Z,40.60
2022-12-01T05:08:34.585Z,42.00
2022-12-01T05:09:34.613Z,42.40
2022-12-01T05:10:34.569Z,41.30
2022-12-01T05:11:34.558Z,41.30
2022-12-01T05:12:34.578Z,41.30
2022-12-01T05:13:34.531Z,40.20
2022-12-01T05:14:34.529Z,42.00
2022-12-01T05:15:34.508Z,44.30
2022-12-01T05:16:34.570Z,42.50
2022-12-01T05:17:37.120Z,42.30
2022-12-01T05:18:34.518Z,41.10
2022-12-01T05:19:34.451Z,39.40
2022-12-01T05:20:34.428Z,41.60
2022-12-01T05:21:34.435Z,42.50
2022-12-01T05:23:03.798Z,42.70
2022-12-01T05:23:34.410Z,42.10
2022-12-01T05:24:34.391Z,41.80
2022-12-01T05:25:34.375Z,41.70
2022-12-01T05:26:34.373Z,42.90
2022-12-01T05:27:34.382Z,41.90
2022-12-01T05:28:34.324Z,43.70
2022-12-01T05:29:34.354Z,41.80
2022-12-01T05:30:34.303Z,42.50
2022-12-01T05:31:34.407Z,43.10
2022-12-01T05:32:34.278Z,43.30
2022-12-01T05:33:34.276Z,43.80
2022-12-01T05:34:34.275Z,43.40
2022-12-01T05:35:34.244Z,42.10
2022-12-01T05:36:34.225Z,43.70
2022-12-01T05:37:34.217Z,43.30
2022-12-01T05:38:34.228Z,42.70
2022-12-01T05:39:34.193Z,42.00
2022-12-01T05:40:34.179Z,42.60
2022-12-01T05:41:34.164Z,40.90
2022-12-01T05:42:34.137Z,41.70
2022-12-01T05:43:34.179Z,42.80
2022-12-01T05:44:34.161Z,40.90
2022-12-01T05:45:34.246Z,41.70
2022-12-01T05:46:34.090Z,41.50
2022-12-01T05:47:34.085Z,39.80
2022-12-01T05:48:34.219Z,41.20
2022-12-01T05:49:34.084Z,41.80
2022-12-01T05:50:34.037Z,41.50
2022-12-01T05:51:34.056Z,41.20
2022-12-01T05:52:34.009Z,40.70
2022-12-01T05:53:34.007Z,41.20
2022-12-01T05:54:33.985Z,40.30
2022-12-01T05:55:34.018Z,41.10
2022-12-01T05:56:33.970Z,41.90
2022-12-01T05:57:33.968Z,41.20
2022-12-01T05:58:33.937Z,40.20
2022-12-01T05:59:33.959Z,42.20
2022-12-01T06:00:33.910Z,41.80
2022-12-01T06:01:33.997Z,40.70
2022-12-01T06:02:33.906Z,41.40
2022-12-01T06:03:33.884Z,41.20
2022-12-01T06:04:33.891Z,42.50
2022-12-01T06:05:33.854Z,42.20
2022-12-01T06:06:33.865Z,41.90
2022-12-01T06:07:33.897Z,40.30
2022-12-01T06:08:33.812Z,41.50
2022-12-01T06:09:33.803Z,41.20
2022-12-01T06:10:33.789Z,41.70
2022-12-01T06:11:33.804Z,41.10
2022-12-01T06:12:33.753Z,40.00
2022-12-01T06:13:33.748Z,42.00
2022-12-01T06:14:33.725Z,42.70
2022-12-01T06:15:33.765Z,41.40
2022-12-01T06:16:33.754Z,42.10
2022-12-01T06:17:38.639Z,42.20
2022-12-01T06:18:33.692Z,41.50
2022-12-01T06:19:33.700Z,41.70
2022-12-01T06:20:33.646Z,41.40
2022-12-01T06:21:33.639Z,41.00
2022-12-01T06:22:33.619Z,42.20
2022-12-01T06:23:33.622Z,40.50
2022-12-01T06:24:33.619Z,41.30
2022-12-01T06:25:33.592Z,40.70
2022-12-01T06:26:33.569Z,41.00
2022-12-01T06:27:33.607Z,42.60
2022-12-01T06:28:33.542Z,41.70
2022-12-01T06:29:35.667Z,42.00
2022-12-01T06:30:33.528Z,41.70
2022-12-01T06:31:33.588Z,41.20
2022-12-01T06:32:33.501Z,41.90
2022-12-01T06:33:33.498Z,43.20
2022-12-01T06:34:33.492Z,42.00
2022-12-01T06:35:33.496Z,40.50
2022-12-01T06:36:33.465Z,41.60
2022-12-01T06:37:33.456Z,40.70
2022-12-01T06:38:33.415Z,42.80
2022-12-01T06:39:33.416Z,42.20
2022-12-01T06:40:33.389Z,41.40
2022-12-01T06:41:33.412Z,41.50
2022-12-01T06:42:33.360Z,41.90
2022-12-01T06:43:33.348Z,41.60
2022-12-01T06:44:33.336Z,40.90
2022-12-01T06:45:33.401Z,42.10
2022-12-01T06:46:33.390Z,41.40
2022-12-01T06:47:33.309Z,40.20
2022-12-01T06:48:33.300Z,39.70
2022-12-01T06:49:33.288Z,41.70
2022-12-01T06:50:33.291Z,41.80
2022-12-01T06:51:33.253Z,40.20
2022-12-01T06:52:33.225Z,41.20
2022-12-01T06:53:33.241Z,42.00
2022-12-01T06:54:33.197Z,40.80
2022-12-01T06:55:33.224Z,42.70
2022-12-01T06:56:33.198Z,42.30
2022-12-01T06:57:33.172Z,42.20
2022-12-01T06:58:33.148Z,41.70
2022-12-01T06:59:33.168Z,43.70
2022-12-01T07:00:33.126Z,43.40
2022-12-01T07:01:33.170Z,45.50
2022-12-01T07:02:33.149Z,44.00
2022-12-01T07:03:33.116Z,42.70
2022-12-01T07:04:33.074Z,44.00
2022-12-01T07:05:33.067Z,43.50
2022-12-01T07:06:33.045Z,43.10
2022-12-01T07:07:33.093Z,43.80
2022-12-01T07:08:33.039Z,42.30
2022-12-01T07:09:33.043Z,42.50
2022-12-01T07:10:33.016Z,43.60
2022-12-01T07:11:32.997Z,43.80
2022-12-01T07:12:32.967Z,42.00
2022-12-01T07:13:34.016Z,42.90
2022-12-01T07:14:32.941Z,42.70
2022-12-01T07:15:32.934Z,42.30
2022-12-01T07:16:32.998Z,42.60
2022-12-01T07:17:32.905Z,43.90
2022-12-01T07:18:32.910Z,44.90
2022-12-01T07:19:32.912Z,44.40
2022-12-01T07:20:32.868Z,44.60
2022-12-01T07:21:32.890Z,44.10
2022-12-01T07:22:33.161Z,45.20
2022-12-01T07:23:32.869Z,45.40
2022-12-01T07:24:32.807Z,45.80
2022-12-01T07:25:32.802Z,44.20
2022-12-01T07:26:32.774Z,45.30
2022-12-01T07:27:32.827Z,44.10
2022-12-01T07:28:32.852Z,44.00
2022-12-01T07:29:32.768Z,43.30
2022-12-01T07:30:32.798Z,42.30
2022-12-01T07:31:32.765Z,42.00
2022-12-01T07:32:32.698Z,42.20
2022-12-01T07:33:32.766Z,42.90
2022-12-01T07:34:32.723Z,44.30
2022-12-01T07:35:32.667Z,42.00
2022-12-01T07:36:32.650Z,43.60
2022-12-01T07:37:32.646Z,41.30
2022-12-01T07:38:32.621Z,41.20
2022-12-01T07:39:32.654Z,41.50
2022-12-01T07:40:32.594Z,41.60
2022-12-01T07:41:32.594Z,41.40
2022-12-01T07:42:32.582Z,41.80
2022-12-01T07:43:32.556Z,42.30
2022-12-01T07:44:32.584Z,40.70
2022-12-01T07:45:32.553Z,41.70
2022-12-01T07:46:32.639Z,42.10
2022-12-01T07:47:32.503Z,40.40
2022-12-01T07:48:32.510Z,41.70
2022-12-01T07:49:32.472Z,41.10
2022-12-01T07:50:32.498Z,41.70
2022-12-01T07:51:32.449Z,41.20
2022-12-01T07:52:32.467Z,42.80
2022-12-01T07:53:32.458Z,41.40
2022-12-01T07:54:32.417Z,41.40
2022-12-01T07:55:32.394Z,40.70
2022-12-01T07:56:32.384Z,41.40
2022-12-01T07:57:32.392Z,41.50
2022-12-01T07:58:32.365Z,42.00
2022-12-01T07:59:32.343Z,42.90
2022-12-01T08:00:32.341Z,40.90
2022-12-01T08:01:32.329Z,41.60
2022-12-01T08:02:32.427Z,42.40
2022-12-01T08:03:32.286Z,43.20
2022-12-01T08:04:32.321Z,42.10
2022-12-01T08:05:32.286Z,42.80
2022-12-01T08:06:32.263Z,42.90
2022-12-01T08:07:32.324Z,41.80
2022-12-01T08:08:32.236Z,43.70
2022-12-01T08:09:32.258Z,43.10
2022-12-01T08:10:32.214Z,40.70
2022-12-01T08:11:32.185Z,41.80
2022-12-01T08:12:32.217Z,41.10
2022-12-01T08:13:32.221Z,40.40
2022-12-01T08:14:32.159Z,40.90
2022-12-01T08:15:32.171Z,40.70
2022-12-01T08:16:32.182Z,41.80
2022-12-01T08:17:32.109Z,41.00
2022-12-01T08:18:32.206Z,39.80
2022-12-01T08:19:32.111Z,39.50
2022-12-01T08:20:32.077Z,39.40
2022-12-01T08:21:32.082Z,40.40
2022-12-01T08:22:32.047Z,39.80
2022-12-01T08:23:32.056Z,40.60
2022-12-01T08:24:32.034Z,40.00
2022-12-01T08:25:32.013Z,40.30
2022-12-01T08:26:32.034Z,39.00
2022-12-01T08:27:31.971Z,39.60
2022-12-01T08:28:31.971Z,40.00
2022-12-01T08:29:32.007Z,40.00
2022-12-01T08:30:31.951Z,39.50
2022-12-01T08:31:31.985Z,38.30
2022-12-01T08:32:31.922Z,37.90
2022-12-01T08:33:31.901Z,38.50
2022-12-01T08:34:31.925Z,38.80
2022-12-01T08:35:31.869Z,38.90
2022-12-01T08:36:31.889Z,38.50
2022-12-01T08:37:31.844Z,38.20
2022-12-01T08:38:31.877Z,39.00
2022-12-01T08:39:31.827Z,39.00
2022-12-01T08:40:31.886Z,39.50
2022-12-01T08:41:31.811Z,37.70
2022-12-01T08:42:31.797Z,38.90
2022-12-01T08:43:56.685Z,38.10
2022-12-01T08:44:31.805Z,38.50
2022-12-01T08:45:31.741Z,38.60
2022-12-01T08:46:31.832Z,39.60
2022-12-01T08:47:31.715Z,38.60
2022-12-01T08:48:31.734Z,37.70
2022-12-01T08:49:31.723Z,38.00
2022-12-01T08:50:31.678Z,39.00
2022-12-01T08:51:31.665Z,39.00
2022-12-01T08:52:31.666Z,37.10
2022-12-01T08:53:31.645Z,38.60
2022-12-01T08:54:31.653Z,39.10
2022-12-01T08:55:31.630Z,38.50
2022-12-01T08:56:31.618Z,39.20
2022-12-01T08:57:31.578Z,39.30
2022-12-01T08:58:31.571Z,39.10
2022-12-01T08:59:31.588Z,38.50
2022-12-01T09:00:31.556Z,39.00
2022-12-01T09:01:31.560Z,38.00
2022-12-01T09:02:31.660Z,38.00
2022-12-01T09:03:31.507Z,37.10
2022-12-01T09:04:31.533Z,38.00
2022-12-01T09:05:31.478Z,38.40
2022-12-01T09:06:31.483Z,38.20
2022-12-01T09:07:31.541Z,38.60
2022-12-01T09:08:31.449Z,37.50
2022-12-01T09:09:31.433Z,37.80
2022-12-01T09:10:31.493Z,36.30
2022-12-01T09:11:31.420Z,36.50
2022-12-01T09:12:31.423Z,38.40
2022-12-01T09:13:31.378Z,37.20
2022-12-01T09:14:31.375Z,37.80
2022-12-01T09:15:31.464Z,41.60
2022-12-01T09:16:31.402Z,39.90
2022-12-01T09:17:31.354Z,37.70
2022-12-01T09:18:31.317Z,37.60
2022-12-01T09:19:31.291Z,36.80
2022-12-01T09:20:31.308Z,39.90
2022-12-01T09:21:31.274Z,37.60
2022-12-01T09:22:31.293Z,37.80
2022-12-01T09:23:31.239Z,36.60
2022-12-01T09:24:31.239Z,37.30
2022-12-01T09:25:31.222Z,36.50
2022-12-01T09:26:31.224Z,35.50
2022-12-01T09:27:31.207Z,36.00
2022-12-01T09:28:31.184Z,35.10
2022-12-01T09:29:31.165Z,36.60
2022-12-01T09:30:31.174Z,37.10
2022-12-01T09:31:31.210Z,36.20
2022-12-01T09:32:31.130Z,37.20
2022-12-01T09:33:31.128Z,36.30
2022-12-01T09:34:31.111Z,36.70
2022-12-01T09:35:31.152Z,35.10
2022-12-01T09:36:31.090Z,34.60
2022-12-01T09:37:31.111Z,34.20
2022-12-01T09:38:31.053Z,34.90
2022-12-01T09:39:31.030Z,34.80
2022-12-01T09:40:31.028Z,34.70
2022-12-01T09:41:31.173Z,34.60
2022-12-01T09:42:35.392Z,34.60
2022-12-01T09:43:30.988Z,34.10
2022-12-01T09:44:30.985Z,34.50
2022-12-01T09:45:30.952Z,34.10
2022-12-01T09:46:31.036Z,35.30
2022-12-01T09:47:30.937Z,33.20
2022-12-01T09:48:30.924Z,33.50
2022-12-01T09:49:30.906Z,32.40
2022-12-01T09:50:30.931Z,32.60
2022-12-01T09:51:30.894Z,35.10
2022-12-01T09:52:30.872Z,33.70
2022-12-01T09:53:30.877Z,35.40
2022-12-01T09:54:30.875Z,33.20
2022-12-01T09:55:30.858Z,32.40
2022-12-01T09:56:30.824Z,32.40
2022-12-01T09:57:30.807Z,32.90
2022-12-01T09:58:30.789Z,32.60
2022-12-01T09:59:30.774Z,32.60
2022-12-01T10:00:30.795Z,33.20
2022-12-01T10:01:30.831Z,31.30
2022-12-01T10:02:30.787Z,32.30
2022-12-01T10:03:30.753Z,31.70
2022-12-01T10:04:30.714Z,32.40
2022-12-01T10:05:30.736Z,33.10
2022-12-01T10:06:30.774Z,33.70
2022-12-01T10:07:30.764Z,32.80
2022-12-01T10:08:30.654Z,35.60
2022-12-01T10:09:30.645Z,37.50
2022-12-01T10:10:30.635Z,37.10
2022-12-01T10:11:30.676Z,33.70
2022-12-01T10:12:30.635Z,31.50
2022-12-01T10:13:30.603Z,30.90
2022-12-01T10:14:30.587Z,30.60
2022-12-01T10:15:30.558Z,30.90
2022-12-01T10:16:30.615Z,31.10
2022-12-01T10:17:30.570Z,30.40
2022-12-01T10:18:30.593Z,30.80
2022-12-01T10:19:30.514Z,30.90
2022-12-01T10:20:30.518Z,30.00
2022-12-01T10:21:30.508Z,30.40
2022-12-01T10:22:30.492Z,30.30
2022-12-01T10:23:30.455Z,33.40
2022-12-01T10:24:30.454Z,32.10
2022-12-01T10:25:30.519Z,31.10
2022-12-01T10:26:30.447Z,29.20
2022-12-01T10:27:30.403Z,29.70
2022-12-01T10:28:30.408Z,29.80
2022-12-01T10:29:30.412Z,32.60
2022-12-01T10:30:30.370Z,30.70
2022-12-01T10:31:30.411Z,30.70
2022-12-01T10:32:30.342Z,29.90
2022-12-01T10:33:30.364Z,30.30
2022-12-01T10:34:30.361Z,32.00
2022-12-01T10:35:30.349Z,31.30
2022-12-01T10:36:30.298Z,31.20
2022-12-01T10:37:30.318Z,30.80
2022-12-01T10:38:30.301Z,30.90
2022-12-01T10:39:30.255Z,30.70
2022-12-01T10:40:30.276Z,30.40
2022-12-01T10:41:30.222Z,29.50
2022-12-01T10:42:30.212Z,30.50
2022-12-01T10:43:30.205Z,30.70
2022-12-01T10:44:30.218Z,29.20
2022-12-01T10:45:30.230Z,31.20
2022-12-01T10:46:30.162Z,31.40
2022-12-01T10:47:30.145Z,31.40
2022-12-01T10:48:30.148Z,31.20
2022-12-01T10:49:30.135Z,31.20
2022-12-01T10:50:30.109Z,30.60
2022-12-01T10:51:30.091Z,32.10
2022-12-01T10:52:30.084Z,31.90
2022-12-01T10:53:30.071Z,30.90
2022-12-01T10:54:30.097Z,32.00
2022-12-01T10:55:30.039Z,32.50
2022-12-01T10:56:30.040Z,31.90
2022-12-01T10:57:30.007Z,32.00
2022-12-01T10:58:30.008Z,30.90
2022-12-01T10:59:30.021Z,31.90
2022-12-01T11:00:58.578Z,32.60
2022-12-01T11:01:30.086Z,33.00
2022-12-01T11:02:30.198Z,31.50
2022-12-01T11:03:30.265Z,32.40
2022-12-01T11:04:29.929Z,31.70
2022-12-01T11:05:29.964Z,30.50
2022-12-01T11:06:29.903Z,31.70
2022-12-01T11:07:29.959Z,31.80
2022-12-01T11:08:29.864Z,31.50
2022-12-01T11:09:29.856Z,32.30
2022-12-01T11:10:29.874Z,31.90
2022-12-01T11:11:29.833Z,32.10
2022-12-01T11:12:29.851Z,30.50
2022-12-01T11:13:29.793Z,31.90
2022-12-01T11:14:29.791Z,33.40
2022-12-01T11:15:29.772Z,32.50
2022-12-01T11:16:29.813Z,32.60
2022-12-01T11:17:29.777Z,32.60
2022-12-01T11:18:29.742Z,31.40
2022-12-01T11:19:29.831Z,31.90
2022-12-01T11:20:29.825Z,31.60
2022-12-01T11:21:29.695Z,30.40
2022-12-01T11:22:29.691Z,30.40
2022-12-01T11:23:29.695Z,30.90
2022-12-01T11:24:29.664Z,30.70
2022-12-01T11:25:29.644Z,29.60
2022-12-01T11:26:29.637Z,29.90
2022-12-01T11:27:29.646Z,30.80
2022-12-01T11:28:29.602Z,30.50
2022-12-01T11:29:29.591Z,29.80
2022-12-01T11:30:29.617Z,30.20
2022-12-01T11:31:29.624Z,29.80
2022-12-01T11:32:29.556Z,29.30
2022-12-01T11:33:29.532Z,30.80
2022-12-01T11:34:29.538Z,30.50
2022-12-01T11:35:29.544Z,30.50
2022-12-01T11:36:29.514Z,30.70
2022-12-01T11:37:29.477Z,30.30
2022-12-01T11:38:30.238Z,29.70
2022-12-01T11:39:29.481Z,30.30
2022-12-01T11:40:29.504Z,30.40
2022-12-01T11:41:29.433Z,30.50
2022-12-01T11:42:29.455Z,30.10
2022-12-01T11:43:29.411Z,30.30
2022-12-01T11:44:50.356Z,29.90
2022-12-01T11:45:29.422Z,28.80
2022-12-01T11:46:29.370Z,29.90
2022-12-01T11:47:29.343Z,30.70
2022-12-01T11:48:29.353Z,28.80
2022-12-01T11:49:29.364Z,30.90
2022-12-01T11:50:29.330Z,30.10
2022-12-01T11:51:29.304Z,29.70
2022-12-01T11:52:29.279Z,30.80
2022-12-01T11:53:29.273Z,29.80
2022-12-01T11:54:29.250Z,28.50
2022-12-01T11:55:29.284Z,28.70
2022-12-01T11:56:29.237Z,29.80
2022-12-01T11:57:36.384Z,28.90
2022-12-01T11:58:29.254Z,29.50
2022-12-01T11:59:29.210Z,30.30
2022-12-01T12:00:29.211Z,29.20
2022-12-01T12:01:29.183Z,29.90
2022-12-01T12:02:29.236Z,30.20
2022-12-01T12:03:29.205Z,29.00
2022-12-01T12:04:29.145Z,29.70
2022-12-01T12:05:29.119Z,29.40
2022-12-01T12:06:39.894Z,28.50
2022-12-01T12:07:29.175Z,30.20
2022-12-01T12:08:29.148Z,30.00
2022-12-01T12:09:29.062Z,30.10
2022-12-01T12:10:29.127Z,31.60
2022-12-01T12:11:29.118Z,30.00
2022-12-01T12:12:29.017Z,32.40
2022-12-01T12:13:29.072Z,31.60
2022-12-01T12:14:29.015Z,30.70
2022-12-01T12:15:28.977Z,31.00
2022-12-01T12:16:31.979Z,30.70
2022-12-01T12:17:28.971Z,30.60
2022-12-01T12:18:28.952Z,30.10
2022-12-01T12:19:34.007Z,30.60
2022-12-01T12:20:28.994Z,30.20
2022-12-01T12:21:28.951Z,30.30
2022-12-01T12:22:28.897Z,30.20
2022-12-01T12:23:28.889Z,31.20
2022-12-01T12:24:28.866Z,30.70
2022-12-01T12:25:28.863Z,30.70
2022-12-01T12:26:28.840Z,30.60
2022-12-01T12:27:28.855Z,30.90
2022-12-01T12:28:28.808Z,30.00
2022-12-01T12:29:28.793Z,29.90
2022-12-01T12:30:28.832Z,29.70
2022-12-01T12:31:28.880Z,29.40
2022-12-01T12:32:28.751Z,30.20
2022-12-01T12:33:28.778Z,29.70
2022-12-01T12:34:28.731Z,28.60
2022-12-01T12:35:28.725Z,29.00
2022-12-01T12:36:28.732Z,28.00
2022-12-01T12:37:28.693Z,28.00
2022-12-01T12:38:28.670Z,30.20
2022-12-01T12:39:28.688Z,29.80
2022-12-01T12:40:28.693Z,28.10
2022-12-01T12:41:28.720Z,29.20
2022-12-01T12:42:28.664Z,29.10
2022-12-01T12:43:28.619Z,29.50
2022-12-01T12:44:32.431Z,29.90
2022-12-01T12:45:28.598Z,29.80
2022-12-01T12:46:28.697Z,29.90
2022-12-01T12:47:28.565Z,29.80
2022-12-01T12:48:28.546Z,30.50
2022-12-01T12:49:28.533Z,30.50
2022-12-01T12:50:28.523Z,30.60
2022-12-01T12:51:28.544Z,31.00
2022-12-01T12:52:28.489Z,31.80